createdAt,value
2023-04-18T00:00:34.525Z,111.18
2023-04-18T00:01:34.526Z,113.28
2023-04-18T00:02:34.712Z,111.87
2023-04-18T00:03:34.766Z,111.65
2023-04-18T00:04:34.680Z,111.02
2023-04-18T00:05:34.589Z,112.66
2023-04-18T00:06:34.596Z,111.15
2023-04-18T00:07:34.604Z,111.04
2023-04-18T00:08:34.633Z,111.06
2023-04-18T00:09:34.718Z,112.31
2023-04-18T00:10:34.668Z,112.43
2023-04-18T00:11:34.674Z,111.16
2023-04-18T00:12:34.679Z,109.63
2023-04-18T00:13:34.722Z,110.28
2023-04-18T00:14:34.735Z,109.62
2023-04-18T00:15:34.711Z,111.53
2023-04-18T00:16:34.771Z,109.87
2023-04-18T00:17:34.775Z,109.51
2023-04-18T00:18:34.751Z,109.69
2023-04-18T00:19:34.761Z,112.93
2023-04-18T00:20:34.798Z,111.15
2023-04-18T00:21:34.785Z,111.48
2023-04-18T00:22:34.805Z,110.86
2023-04-18T00:23:34.876Z,110.71
2023-04-18T00:24:34.837Z,110.59
2023-04-18T00:25:34.858Z,110.45
2023-04-18T00:26:34.866Z,110.00
2023-04-18T00:27:34.872Z,111.05
2023-04-18T00:28:34.879Z,110.54
2023-04-18T00:29:34.934Z,110.23
2023-04-18T00:30:34.964Z,110.03
2023-04-18T00:31:34.985Z,109.19
2023-04-18T00:32:34.967Z,109.26
2023-04-18T00:33:34.975Z,108.99
2023-04-18T00:34:35.018Z,109.65
2023-04-18T00:35:34.999Z,109.94
2023-04-18T00:36:35.015Z,109.10
2023-04-18T00:37:35.032Z,110.35
2023-04-18T00:38:35.052Z,109.90
2023-04-18T00:39:35.066Z,109.20
2023-04-18T00:40:35.083Z,110.25
2023-04-18T00:41:35.093Z,108.79
2023-04-18T00:42:35.110Z,109.35
2023-04-18T00:43:35.194Z,110.56
2023-04-18T00:44:35.136Z,110.17
2023-04-18T00:45:35.166Z,110.63
2023-04-18T00:46:35.206Z,109.12
2023-04-18T00:47:35.197Z,110.18
2023-04-18T00:48:35.198Z,107.76
2023-04-18T00:49:35.217Z,107.28
2023-04-18T00:50:35.234Z,110.60
2023-04-18T00:51:36.136Z,107.59
2023-04-18T00:52:35.264Z,108.85
2023-04-18T00:53:35.276Z,109.19
2023-04-18T00:54:35.304Z,107.21
2023-04-18T00:55:35.312Z,107.75
2023-04-18T00:56:35.326Z,109.19
2023-04-18T00:57:35.333Z,108.55
2023-04-18T00:58:35.340Z,109.28
2023-04-18T00:59:35.354Z,108.54
2023-04-18T01:00:35.418Z,108.59
2023-04-18T01:01:35.474Z,109.12
2023-04-18T01:02:35.566Z,108.98
2023-04-18T01:03:35.637Z,109.82
2023-04-18T01:04:35.774Z,108.37
2023-04-18T01:05:35.489Z,107.89
2023-04-18T01:06:35.495Z,108.32
2023-04-18T01:07:35.492Z,107.90
2023-04-18T01:08:35.517Z,108.87
2023-04-18T01:09:35.514Z,108.64
2023-04-18T01:10:35.518Z,107.47
2023-04-18T01:11:35.533Z,108.68
2023-04-18T01:12:35.555Z,108.53
2023-04-18T01:13:35.560Z,106.95
2023-04-18T01:14:35.588Z,107.60
2023-04-18T01:15:35.634Z,107.53
2023-04-18T01:16:35.606Z,108.21
2023-04-18T01:17:35.647Z,109.21
2023-04-18T01:18:35.625Z,107.97
2023-04-18T01:19:35.634Z,108.14
2023-04-18T01:20:35.664Z,108.04
2023-04-18T01:21:35.737Z,107.83
2023-04-18T01:22:35.706Z,109.36
2023-04-18T01:23:35.718Z,108.95
2023-04-18T01:24:35.728Z,108.32
2023-04-18T01:25:35.732Z,108.28
2023-04-18T01:26:35.737Z,108.06
2023-04-18T01:27:35.777Z,106.78
2023-04-18T01:28:35.778Z,107.65
2023-04-18T01:29:37.847Z,106.80
2023-04-18T01:30:35.791Z,109.25
2023-04-18T01:31:35.821Z,106.71
2023-04-18T01:32:35.786Z,109.41
2023-04-18T01:33:35.777Z,107.49
2023-04-18T01:34:35.755Z,106.67
2023-04-18T01:35:35.780Z,106.93
2023-04-18T01:36:35.750Z,107.53
2023-04-18T01:37:35.738Z,106.22
2023-04-18T01:38:35.735Z,106.69
2023-04-18T01:39:35.710Z,106.23
2023-04-18T01:40:35.717Z,106.51
2023-04-18T01:41:35.692Z,105.52
2023-04-18T01:42:35.674Z,105.71
2023-04-18T01:43:35.671Z,106.48
2023-04-18T01:44:35.688Z,107.92
2023-04-18T01:45:35.656Z,106.26
2023-04-18T01:46:35.709Z,106.51
2023-04-18T01:47:35.672Z,105.16
2023-04-18T01:48:35.660Z,105.88
2023-04-18T01:49:35.635Z,104.97
2023-04-18T01:50:35.636Z,104.45
2023-04-18T01:51:35.622Z,105.78
2023-04-18T01:52:35.613Z,106.68
2023-04-18T01:53:35.610Z,107.13
2023-04-18T01:54:35.600Z,106.88
2023-04-18T01:55:35.603Z,105.39
2023-04-18T01:56:35.608Z,105.66
2023-04-18T01:57:35.592Z,105.86
2023-04-18T01:58:35.570Z,105.35
2023-04-18T01:59:35.571Z,106.84
2023-04-18T02:00:35.648Z,106.30
2023-04-18T02:01:35.577Z,106.05
2023-04-18T02:02:35.633Z,105.09
2023-04-18T02:03:35.740Z,106.81
2023-04-18T02:04:35.547Z,103.41
2023-04-18T02:05:35.568Z,105.42
2023-04-18T02:06:35.541Z,105.38
2023-04-18T02:07:35.518Z,105.83
2023-04-18T02:08:35.553Z,106.29
2023-04-18T02:09:35.566Z,105.44
2023-04-18T02:10:35.493Z,104.70
2023-04-18T02:11:35.501Z,105.34
2023-04-18T02:12:35.502Z,105.55
2023-04-18T02:13:35.490Z,104.71
2023-04-18T02:14:35.492Z,106.56
2023-04-18T02:15:35.473Z,104.33
2023-04-18T02:16:35.526Z,103.94
2023-04-18T02:17:35.507Z,104.37
2023-04-18T02:18:35.464Z,104.29
2023-04-18T02:19:35.469Z,103.28
2023-04-18T02:20:35.469Z,103.09
2023-04-18T02:21:35.472Z,101.72
2023-04-18T02:22:35.430Z,103.58
2023-04-18T02:23:35.422Z,101.62
2023-04-18T02:24:35.456Z,105.17
2023-04-18T02:25:35.413Z,105.01
2023-04-18T02:26:35.399Z,104.97
2023-04-18T02:27:35.392Z,102.71
2023-04-18T02:28:35.378Z,104.63
2023-04-18T02:29:35.387Z,102.07
2023-04-18T02:30:35.377Z,104.83
2023-04-18T02:31:35.391Z,105.53
2023-04-18T02:32:35.373Z,103.93
2023-04-18T02:33:35.356Z,105.53
2023-04-18T02:34:35.348Z,102.31
2023-04-18T02:35:35.383Z,104.09
2023-04-18T02:36:35.339Z,104.39
2023-04-18T02:37:35.317Z,106.66
2023-04-18T02:38:35.341Z,105.32
2023-04-18T02:39:35.292Z,103.99
2023-04-18T02:40:35.333Z,104.86
2023-04-18T02:41:35.308Z,104.43
2023-04-18T02:42:35.309Z,102.43
2023-04-18T02:43:35.278Z,104.54
2023-04-18T02:44:35.292Z,105.19
2023-04-18T02:45:35.280Z,105.56
2023-04-18T02:46:35.256Z,104.09
2023-04-18T02:47:47.121Z,105.80
2023-04-18T02:48:36.410Z,105.91
2023-04-18T02:49:35.228Z,105.51
2023-04-18T02:50:35.237Z,104.63
2023-04-18T02:51:35.213Z,104.85
2023-04-18T02:52:35.235Z,106.06
2023-04-18T02:53:35.207Z,102.82
2023-04-18T02:54:35.272Z,101.22
2023-04-18T02:55:35.225Z,100.30
2023-04-18T02:56:35.212Z,102.13
2023-04-18T02:57:35.176Z,102.88
2023-04-18T02:58:35.157Z,101.39
2023-04-18T02:59:35.149Z,101.39
2023-04-18T03:00:35.159Z,103.48
2023-04-18T03:01:35.255Z,103.55
2023-04-18T03:02:35.316Z,102.61
2023-04-18T03:03:35.268Z,102.07
2023-04-18T03:04:35.164Z,101.76
2023-04-18T03:05:35.127Z,102.85
2023-04-18T03:06:35.184Z,100.50
2023-04-18T03:07:35.101Z,100.83
2023-04-18T03:08:35.113Z,101.32
2023-04-18T03:09:35.082Z,104.20
2023-04-18T03:10:35.099Z,101.81
2023-04-18T03:11:35.076Z,102.70
2023-04-18T03:12:35.157Z,102.58
2023-04-18T03:13:35.070Z,103.21
2023-04-18T03:14:35.043Z,103.18
2023-04-18T03:15:35.050Z,102.32
2023-04-18T03:16:35.060Z,103.51
2023-04-18T03:17:35.041Z,103.27
2023-04-18T03:18:35.048Z,102.20
2023-04-18T03:19:35.071Z,102.95
2023-04-18T03:20:35.048Z,102.14
2023-04-18T03:21:35.058Z,102.65
2023-04-18T03:22:35.134Z,103.62
2023-04-18T03:23:35.085Z,102.59
2023-04-18T03:24:35.076Z,104.41
2023-04-18T03:25:35.124Z,102.37
2023-04-18T03:26:35.116Z,103.44
2023-04-18T03:27:35.110Z,101.88
2023-04-18T03:28:35.120Z,102.60
2023-04-18T03:29:35.145Z,103.46
2023-04-18T03:30:35.162Z,101.98
2023-04-18T03:31:35.266Z,99.93
2023-04-18T03:32:35.262Z,100.19
2023-04-18T03:33:35.153Z,102.00
2023-04-18T03:34:35.190Z,102.72
2023-04-18T03:35:35.175Z,101.81
2023-04-18T03:36:35.282Z,103.54
2023-04-18T03:37:35.213Z,100.34
2023-04-18T03:38:35.209Z,100.72
2023-04-18T03:39:35.238Z,101.72
2023-04-18T03:40:35.255Z,99.27
2023-04-18T03:41:35.263Z,102.25
2023-04-18T03:42:35.299Z,103.21
2023-04-18T03:43:35.311Z,102.93
2023-04-18T03:44:35.323Z,101.27
2023-04-18T03:45:35.334Z,98.48
2023-04-18T03:46:35.431Z,100.99
2023-04-18T03:47:35.357Z,102.65
2023-04-18T03:48:35.345Z,102.20
2023-04-18T03:49:35.382Z,102.64
2023-04-18T03:50:35.386Z,102.59
2023-04-18T03:51:35.403Z,100.92
2023-04-18T03:52:35.570Z,102.11
2023-04-18T03:53:35.452Z,101.45
2023-04-18T03:54:35.485Z,99.92
2023-04-18T03:55:35.434Z,100.48
2023-04-18T03:56:35.492Z,103.42
2023-04-18T03:57:35.462Z,103.09
2023-04-18T03:58:35.494Z,100.75
2023-04-18T03:59:35.498Z,101.46
2023-04-18T04:00:35.516Z,102.15
2023-04-18T04:01:35.563Z,101.10
2023-04-18T04:02:35.792Z,97.42
2023-04-18T04:03:35.661Z,98.94
2023-04-18T04:04:35.604Z,99.72
2023-04-18T04:05:35.563Z,97.97
2023-04-18T04:06:35.588Z,101.57
2023-04-18T04:07:35.602Z,101.44
2023-04-18T04:08:35.591Z,100.90
2023-04-18T04:09:35.645Z,99.44
2023-04-18T04:10:35.617Z,98.57
2023-04-18T04:11:35.633Z,100.38
2023-04-18T04:12:35.670Z,101.10
2023-04-18T04:13:35.667Z,102.01
2023-04-18T04:14:35.804Z,102.31
2023-04-18T04:15:35.701Z,100.99
2023-04-18T04:16:35.817Z,99.83
2023-04-18T04:17:35.810Z,98.53
2023-04-18T04:18:35.781Z,98.60
2023-04-18T04:19:35.857Z,99.91
2023-04-18T04:20:35.755Z,101.15
2023-04-18T04:21:35.773Z,100.74
2023-04-18T04:22:35.793Z,101.82
2023-04-18T04:23:35.800Z,101.60
2023-04-18T04:24:35.873Z,101.06
2023-04-18T04:25:35.849Z,101.96
2023-04-18T04:26:35.849Z,101.88
2023-04-18T04:27:35.865Z,100.72
2023-04-18T04:28:35.867Z,99.45
2023-04-18T04:29:35.970Z,101.40
2023-04-18T04:30:35.937Z,102.01
2023-04-18T04:31:35.979Z,101.11
2023-04-18T04:32:35.959Z,100.02
2023-04-18T04:33:35.933Z,99.89
2023-04-18T04:34:35.997Z,100.53
2023-04-18T04:35:35.965Z,98.79
2023-04-18T04:36:35.984Z,100.65
2023-04-18T04:37:36.000Z,102.38
2023-04-18T04:38:36.007Z,101.27
2023-04-18T04:39:36.104Z,100.60
2023-04-18T04:40:36.043Z,100.47
2023-04-18T04:41:36.069Z,101.88
2023-04-18T04:42:36.140Z,97.78
2023-04-18T04:43:36.093Z,101.28
2023-04-18T04:44:36.183Z,101.04
2023-04-18T04:45:36.204Z,101.23
2023-04-18T04:46:36.150Z,99.75
2023-04-18T04:47:36.268Z,99.39
2023-04-18T04:48:36.194Z,100.28
2023-04-18T04:49:36.239Z,99.94
2023-04-18T04:50:36.226Z,102.41
2023-04-18T04:51:36.237Z,99.96
2023-04-18T04:52:36.276Z,98.29
2023-04-18T04:53:36.297Z,98.99
2023-04-18T04:54:36.354Z,99.06
2023-04-18T04:55:36.338Z,98.46
2023-04-18T04:56:36.368Z,98.96
2023-04-18T04:57:36.379Z,100.40
2023-04-18T04:58:36.357Z,100.66
2023-04-18T04:59:36.440Z,97.40
2023-04-18T05:00:36.398Z,98.02
2023-04-18T05:01:36.430Z,99.33
2023-04-18T05:02:36.634Z,98.87
2023-04-18T05:03:36.692Z,100.20
2023-04-18T05:04:36.650Z,101.16
2023-04-18T05:05:36.523Z,98.66
2023-04-18T05:06:37.925Z,98.36
2023-04-18T05:07:36.557Z,98.82
2023-04-18T05:08:36.525Z,98.92
2023-04-18T05:09:36.560Z,99.20
2023-04-18T05:10:36.494Z,98.10
2023-04-18T05:11:36.515Z,97.84
2023-04-18T05:12:36.499Z,98.12
2023-04-18T05:13:36.502Z,98.48
2023-04-18T05:14:36.485Z,96.27
2023-04-18T05:15:36.491Z,98.99
2023-04-18T05:16:36.545Z,97.78
2023-04-18T05:17:36.504Z,97.42
2023-04-18T05:18:36.452Z,97.92
2023-04-18T05:19:36.434Z,97.79
2023-04-18T05:20:36.493Z,96.47
2023-04-18T05:21:36.427Z,97.73
2023-04-18T05:22:36.448Z,95.78
2023-04-18T05:23:36.734Z,97.24
2023-04-18T05:24:36.397Z,95.35
2023-04-18T05:25:36.392Z,93.75
2023-04-18T05:26:36.462Z,95.48
2023-04-18T05:27:36.429Z,93.73
2023-04-18T05:28:36.798Z,90.86
2023-04-18T05:29:36.383Z,91.47
2023-04-18T05:30:36.474Z,91.85
2023-04-18T05:31:36.559Z,89.03
2023-04-18T05:32:36.515Z,88.90
2023-04-18T05:33:36.405Z,91.21
2023-04-18T05:34:38.569Z,86.95
2023-04-18T05:35:36.393Z,87.05
2023-04-18T05:36:36.383Z,87.58
2023-04-18T05:37:36.405Z,90.30
2023-04-18T05:38:36.441Z,93.37
2023-04-18T05:39:36.420Z,104.13
2023-04-18T05:40:36.831Z,103.16
2023-04-18T05:41:36.485Z,111.46
2023-04-18T05:42:36.596Z,115.67
2023-04-18T05:43:36.777Z,120.52
2023-04-18T05:44:36.616Z,124.69
2023-04-18T05:45:36.656Z,125.64
2023-04-18T05:46:36.740Z,132.45
2023-04-18T05:47:36.800Z,138.15
2023-04-18T05:48:36.836Z,144.27
2023-04-18T05:49:36.831Z,145.25
2023-04-18T05:50:37.255Z,151.38
2023-04-18T05:51:37.802Z,153.33
2023-04-18T05:52:36.949Z,156.27
2023-04-18T05:53:37.276Z,164.08
2023-04-18T05:54:36.976Z,165.14
2023-04-18T05:55:37.034Z,171.52
2023-04-18T05:56:37.035Z,174.40
2023-04-18T05:57:37.083Z,178.05
2023-04-18T05:58:37.111Z,182.81
2023-04-18T05:59:37.099Z,187.72
2023-04-18T06:00:37.193Z,188.48
2023-04-18T06:01:37.153Z,190.49
2023-04-18T06:02:37.252Z,193.25
2023-04-18T06:03:37.326Z,196.72
2023-04-18T06:04:37.240Z,199.63
2023-04-18T06:05:37.348Z,202.52
2023-04-18T06:06:37.167Z,205.48
2023-04-18T06:07:37.126Z,210.60
2023-04-18T06:08:37.218Z,213.33
2023-04-18T06:09:37.170Z,215.51
2023-04-18T06:10:38.972Z,217.76
2023-04-18T06:11:37.139Z,220.97
2023-04-18T06:12:37.162Z,220.84
2023-04-18T06:13:37.302Z,224.53
2023-04-18T06:14:37.225Z,226.00
2023-04-18T06:15:37.244Z,230.80
2023-04-18T06:16:37.408Z,231.86
2023-04-18T06:17:37.392Z,233.25
2023-04-18T06:18:37.399Z,237.61
2023-04-18T06:19:37.418Z,242.33
2023-04-18T06:20:37.469Z,242.69
2023-04-18T06:21:37.555Z,244.27
2023-04-18T06:22:37.580Z,244.35
2023-04-18T06:23:37.674Z,248.37
2023-04-18T06:24:37.763Z,247.75
2023-04-18T06:25:37.820Z,248.81
2023-04-18T06:26:37.902Z,248.29
2023-04-18T06:27:37.911Z,250.00
2023-04-18T06:28:38.338Z,250.00
2023-04-18T06:29:38.119Z,250.00
2023-04-18T06:30:38.056Z,249.04
2023-04-18T06:31:38.213Z,249.11
2023-04-18T06:32:38.217Z,249.40
2023-04-18T06:33:38.246Z,246.91
2023-04-18T06:34:38.283Z,248.50
2023-04-18T06:35:38.314Z,248.63
2023-04-18T06:36:38.331Z,247.88
2023-04-18T06:37:38.396Z,248.73
2023-04-18T06:38:38.829Z,241.29
2023-04-18T06:39:38.457Z,238.05
2023-04-18T06:40:38.781Z,209.18
2023-04-18T06:41:38.579Z,194.99
2023-04-18T06:42:38.615Z,182.87
2023-04-18T06:43:38.679Z,170.17
2023-04-18T06:44:38.644Z,157.08
2023-04-18T06:45:38.932Z,151.85
2023-04-18T06:46:38.652Z,145.01
2023-04-18T06:47:38.735Z,135.00
2023-04-18T06:48:38.763Z,127.90
2023-04-18T06:49:38.775Z,118.67
2023-04-18T06:50:39.269Z,114.22
2023-04-18T06:51:38.845Z,115.51
2023-04-18T06:52:38.880Z,121.93
2023-04-18T06:53:38.982Z,122.47
2023-04-18T06:54:38.965Z,123.80
2023-04-18T06:55:39.005Z,125.37
2023-04-18T06:56:39.072Z,154.57
2023-04-18T06:57:39.120Z,146.28
2023-04-18T06:58:39.096Z,141.63
2023-04-18T06:59:39.078Z,160.13
2023-04-18T07:00:39.273Z,163.38
2023-04-18T07:01:39.170Z,176.81
2023-04-18T07:02:39.294Z,166.98
2023-04-18T07:03:39.464Z,158.94
2023-04-18T07:04:39.370Z,159.04
2023-04-18T07:05:39.280Z,156.77
2023-04-18T07:06:39.111Z,152.38
2023-04-18T07:07:39.123Z,154.40
2023-04-18T07:08:39.130Z,153.33
2023-04-18T07:09:39.112Z,154.08
2023-04-18T07:10:39.185Z,152.02
2023-04-18T07:11:39.203Z,154.83
2023-04-18T07:12:39.229Z,156.54
2023-04-18T07:13:39.278Z,154.83
2023-04-18T07:14:39.344Z,155.59
2023-04-18T07:15:39.426Z,160.31
2023-04-18T07:16:39.509Z,158.75
2023-04-18T07:17:39.586Z,162.71
2023-04-18T07:18:39.621Z,162.88
2023-04-18T07:19:39.685Z,166.46
2023-04-18T07:20:39.779Z,168.92
2023-04-18T07:21:39.791Z,172.50
2023-04-18T07:22:39.864Z,174.23
2023-04-18T07:23:39.913Z,178.22
2023-04-18T07:24:39.984Z,176.79
2023-04-18T07:25:40.074Z,178.63
2023-04-18T07:26:40.093Z,180.72
2023-04-18T07:27:40.205Z,180.62
2023-04-18T07:28:40.297Z,178.76
2023-04-18T07:29:40.312Z,180.35
2023-04-18T07:30:40.359Z,183.05
2023-04-18T07:31:40.402Z,184.72
2023-04-18T07:32:40.497Z,183.85
2023-04-18T07:33:40.495Z,183.45
2023-04-18T07:34:40.781Z,188.81
2023-04-18T07:35:40.626Z,199.72
2023-04-18T07:36:40.692Z,203.38
2023-04-18T07:37:40.734Z,204.56
2023-04-18T07:38:40.807Z,204.89
2023-04-18T07:39:40.866Z,205.00
2023-04-18T07:40:40.957Z,206.43
2023-04-18T07:41:40.955Z,211.28
2023-04-18T07:42:41.024Z,213.24
2023-04-18T07:43:41.173Z,216.06
2023-04-18T07:44:41.081Z,222.33
2023-04-18T07:45:41.150Z,220.79
2023-04-18T07:46:41.198Z,230.28
2023-04-18T07:47:41.320Z,236.42
2023-04-18T07:48:41.348Z,233.46
2023-04-18T07:49:41.338Z,238.67
2023-04-18T07:50:41.309Z,240.19
2023-04-18T07:51:42.303Z,239.41
2023-04-18T07:52:41.596Z,240.02
2023-04-18T07:53:41.397Z,246.63
2023-04-18T07:54:41.427Z,250.00
2023-04-18T07:55:41.848Z,247.20
2023-04-18T07:56:41.445Z,250.00
2023-04-18T07:57:41.475Z,249.83
2023-04-18T07:58:41.513Z,247.51
2023-04-18T07:59:41.802Z,245.56
2023-04-18T08:00:41.821Z,249.39
2023-04-18T08:01:41.571Z,246.96
2023-04-18T08:02:41.875Z,245.54
2023-04-18T08:03:41.772Z,242.32
2023-04-18T08:04:41.771Z,245.73
2023-04-18T08:05:41.682Z,245.87
2023-04-18T08:06:41.647Z,243.78
2023-04-18T08:07:41.610Z,245.81
2023-04-18T08:08:41.628Z,250.00
2023-04-18T08:09:41.679Z,249.41
2023-04-18T08:10:41.641Z,247.85
2023-04-18T08:11:41.640Z,248.63
2023-04-18T08:12:41.638Z,246.06
2023-04-18T08:13:41.639Z,245.39
2023-04-18T08:14:41.656Z,244.86
2023-04-18T08:15:41.651Z,245.05
2023-04-18T08:16:41.710Z,245.20
2023-04-18T08:17:41.804Z,244.50
2023-04-18T08:18:41.687Z,250.00
2023-04-18T08:19:41.677Z,247.87
2023-04-18T08:20:41.770Z,248.39
2023-04-18T08:21:41.805Z,246.19
2023-04-18T08:23:01.369Z,250.00
2023-04-18T08:23:42.721Z,250.17
2023-04-18T08:24:48.629Z,250.07
2023-04-18T08:25:42.874Z,238.72
2023-04-18T08:26:41.656Z,220.10
2023-04-18T08:27:41.682Z,223.86
2023-04-18T08:28:41.979Z,214.54
2023-04-18T08:29:41.669Z,224.09
2023-04-18T08:30:41.640Z,204.46
2023-04-18T08:31:41.913Z,199.51
2023-04-18T08:32:41.633Z,186.67
2023-04-18T08:33:41.642Z,183.26
2023-04-18T08:34:41.849Z,180.10
2023-04-18T08:35:41.608Z,171.10
2023-04-18T08:36:41.594Z,166.66
2023-04-18T08:37:41.624Z,150.55
2023-04-18T08:38:41.575Z,159.87
2023-04-18T08:39:41.559Z,147.22
2023-04-18T08:40:41.575Z,130.30
2023-04-18T08:41:41.901Z,120.82
2023-04-18T08:42:41.539Z,108.32
2023-04-18T08:43:41.596Z,92.81
2023-04-18T08:44:41.644Z,75.91
2023-04-18T08:45:41.699Z,83.19
2023-04-18T08:46:41.829Z,92.24
2023-04-18T08:47:41.882Z,91.25
2023-04-18T08:48:41.858Z,85.97
2023-04-18T08:49:41.914Z,87.53
2023-04-18T08:50:42.119Z,84.76
2023-04-18T08:51:42.342Z,71.94
2023-04-18T08:52:42.091Z,69.73
2023-04-18T08:53:42.196Z,56.88
2023-04-18T08:54:42.257Z,64.98
2023-04-18T08:55:42.326Z,40.77
2023-04-18T08:56:42.812Z,40.89
2023-04-18T08:57:42.467Z,29.79
2023-04-18T08:58:42.494Z,33.77
2023-04-18T08:59:43.786Z,31.57
2023-04-18T09:00:42.596Z,27.41
2023-04-18T09:01:42.721Z,23.94
2023-04-18T09:02:43.176Z,20.13
2023-04-18T09:03:42.819Z,13.86
2023-04-18T09:04:42.766Z,28.55
2023-04-18T09:05:42.815Z,37.78
2023-04-18T09:06:42.841Z,31.81
2023-04-18T09:07:42.968Z,32.50
2023-04-18T09:08:42.894Z,27.23
2023-04-18T09:09:42.950Z,32.84
2023-04-18T09:10:44.292Z,30.28
2023-04-18T09:11:42.966Z,25.00
2023-04-18T09:12:43.003Z,34.99
2023-04-18T09:13:43.013Z,25.18
2023-04-18T09:14:43.008Z,25.38
2023-04-18T09:15:43.084Z,26.67
2023-04-18T09:16:43.070Z,25.83
2023-04-18T09:17:43.159Z,22.81
2023-04-18T09:18:43.082Z,25.55
2023-04-18T09:19:43.073Z,25.00
2023-04-18T09:20:43.857Z,28.28
2023-04-18T09:21:43.328Z,40.33
2023-04-18T09:22:43.048Z,37.73
2023-04-18T09:23:43.056Z,26.14
2023-04-18T09:24:43.027Z,31.14
2023-04-18T09:25:45.038Z,41.85
2023-04-18T09:26:43.024Z,47.91
2023-04-18T09:27:43.075Z,42.79
2023-04-18T09:28:43.099Z,39.63
2023-04-18T09:29:43.040Z,45.65
2023-04-18T09:30:43.353Z,21.51
2023-04-18T09:31:43.056Z,0.00
2023-04-18T09:32:43.173Z,17.74
2023-04-18T09:33:43.282Z,14.44
2023-04-18T09:34:43.196Z,24.19
2023-04-18T09:35:43.414Z,35.07
2023-04-18T09:36:43.302Z,42.36
2023-04-18T09:37:43.311Z,48.51
2023-04-18T09:38:43.373Z,49.42
2023-04-18T09:39:43.374Z,50.33
2023-04-18T09:40:43.408Z,43.75
2023-04-18T09:41:43.426Z,51.03
2023-04-18T09:42:43.484Z,38.37
2023-04-18T09:43:43.459Z,49.84
2023-04-18T09:44:43.508Z,53.65
2023-04-18T09:45:43.530Z,50.18
2023-04-18T09:46:46.571Z,53.33
2023-04-18T09:47:43.564Z,54.59
2023-04-18T09:48:43.523Z,53.94
2023-04-18T09:49:43.497Z,52.46
2023-04-18T09:50:43.854Z,46.40
2023-04-18T09:51:43.869Z,40.97
2023-04-18T09:52:43.478Z,46.99
2023-04-18T09:53:43.506Z,47.74
2023-04-18T09:54:43.557Z,48.53
2023-04-18T09:55:43.450Z,41.35
2023-04-18T09:56:43.512Z,47.12
2023-04-18T09:57:43.442Z,38.31
2023-04-18T09:58:43.429Z,42.21
2023-04-18T09:59:43.428Z,40.66
2023-04-18T10:00:44.997Z,48.74
2023-04-18T10:01:43.434Z,48.73
2023-04-18T10:02:43.493Z,40.66
2023-04-18T10:03:43.521Z,46.55
2023-04-18T10:04:43.499Z,49.45
2023-04-18T10:05:43.511Z,42.35
2023-04-18T10:06:43.370Z,40.91
2023-04-18T10:07:43.354Z,42.84
2023-04-18T10:08:43.383Z,39.16
2023-04-18T10:09:43.380Z,44.09
2023-04-18T10:10:43.381Z,47.35
2023-04-18T10:11:43.418Z,43.75
2023-04-18T10:12:43.319Z,45.09
2023-04-18T10:13:43.396Z,48.46
2023-04-18T10:14:43.360Z,44.97
2023-04-18T10:15:44.279Z,42.41
2023-04-18T10:16:43.682Z,38.72
2023-04-18T10:17:56.088Z,42.71
2023-04-18T10:18:44.291Z,39.00
2023-04-18T10:19:43.297Z,29.17
2023-04-18T10:20:43.320Z,20.76
2023-04-18T10:21:43.287Z,27.05
2023-04-18T10:22:43.265Z,24.32
2023-04-18T10:23:43.262Z,31.68
2023-04-18T10:24:43.232Z,35.12
2023-04-18T10:25:43.262Z,31.93
2023-04-18T10:26:43.249Z,30.70
2023-04-18T10:27:43.232Z,27.94
2023-04-18T10:28:43.276Z,28.99
2023-04-18T10:29:43.286Z,37.87
2023-04-18T10:30:43.269Z,41.41
2023-04-18T10:31:43.389Z,56.52
2023-04-18T10:32:43.343Z,75.49
2023-04-18T10:33:43.377Z,88.46
2023-04-18T10:34:45.881Z,98.28
2023-04-18T10:35:43.437Z,104.83
2023-04-18T10:36:43.472Z,115.17
2023-04-18T10:37:43.456Z,120.67
2023-04-18T10:38:43.512Z,121.30
2023-04-18T10:39:43.545Z,126.94
2023-04-18T10:40:43.664Z,131.82
2023-04-18T10:41:43.646Z,140.30
2023-04-18T10:42:43.726Z,145.95
2023-04-18T10:43:43.771Z,151.12
2023-04-18T10:44:43.844Z,156.33
2023-04-18T10:45:43.892Z,160.94
2023-04-18T10:46:43.986Z,164.03
2023-04-18T10:47:44.045Z,166.46
2023-04-18T10:48:44.090Z,172.52
2023-04-18T10:49:44.062Z,177.18
2023-04-18T10:50:44.089Z,178.81
2023-04-18T10:51:44.258Z,183.85
2023-04-18T10:52:44.170Z,188.29
2023-04-18T10:53:44.197Z,189.66
2023-04-18T10:54:44.230Z,191.53
2023-04-18T10:55:44.279Z,193.27
2023-04-18T10:56:44.384Z,196.91
2023-04-18T10:57:44.276Z,199.80
2023-04-18T10:58:44.292Z,202.93
2023-04-18T10:59:44.299Z,205.87
2023-04-18T11:00:44.375Z,207.88
2023-04-18T11:01:44.365Z,210.31
2023-04-18T11:02:44.461Z,211.19
2023-04-18T11:03:44.454Z,215.44
2023-04-18T11:04:44.379Z,216.47
2023-04-18T11:05:44.399Z,226.72
2023-04-18T11:06:44.555Z,224.63
2023-04-18T11:07:44.481Z,228.68
2023-04-18T11:08:44.425Z,226.31
2023-04-18T11:09:45.504Z,229.85
2023-04-18T11:10:44.465Z,232.49
2023-04-18T11:11:44.508Z,233.16
2023-04-18T11:12:44.478Z,234.34
2023-04-18T11:13:44.471Z,234.83
2023-04-18T11:14:44.514Z,236.59
2023-04-18T11:15:44.475Z,239.21
2023-04-18T11:16:44.658Z,237.36
2023-04-18T11:17:44.592Z,225.37
2023-04-18T11:18:44.519Z,230.48
2023-04-18T11:19:44.517Z,234.29
2023-04-18T11:20:44.534Z,233.39
2023-04-18T11:21:44.569Z,234.30
2023-04-18T11:22:44.674Z,230.70
2023-04-18T11:23:44.576Z,232.03
2023-04-18T11:24:44.644Z,229.97
2023-04-18T11:25:44.637Z,230.95
2023-04-18T11:26:45.441Z,229.31
2023-04-18T11:27:44.691Z,230.55
2023-04-18T11:28:44.698Z,231.12
2023-04-18T11:29:44.756Z,228.69
2023-04-18T11:30:44.763Z,230.50
2023-04-18T11:31:44.849Z,230.27
2023-04-18T11:32:44.882Z,228.23
2023-04-18T11:33:44.907Z,230.31
2023-04-18T11:34:44.932Z,227.27
2023-04-18T11:35:44.960Z,227.75
2023-04-18T11:36:45.090Z,228.56
2023-04-18T11:37:45.048Z,230.62
2023-04-18T11:38:45.071Z,231.50
2023-04-18T11:39:45.108Z,227.42
2023-04-18T11:40:45.163Z,229.22
2023-04-18T11:41:45.191Z,228.60
2023-04-18T11:42:45.235Z,226.21
2023-04-18T11:43:45.282Z,225.88
2023-04-18T11:44:45.324Z,224.14
2023-04-18T11:45:45.402Z,225.47
2023-04-18T11:46:45.414Z,224.64
2023-04-18T11:47:45.483Z,226.07
2023-04-18T11:48:45.509Z,224.67
2023-04-18T11:49:45.548Z,223.50
2023-04-18T11:50:45.592Z,221.47
2023-04-18T11:51:45.636Z,219.90
2023-04-18T11:52:45.742Z,221.35
2023-04-18T11:53:45.796Z,218.31
2023-04-18T11:54:45.777Z,218.52
2023-04-18T11:55:45.829Z,217.84
2023-04-18T11:56:45.876Z,217.50
2023-04-18T11:57:45.946Z,218.29
2023-04-18T11:58:46.031Z,217.33
2023-04-18T11:59:46.038Z,215.82
2023-04-18T12:00:46.134Z,214.32
2023-04-18T12:01:46.165Z,215.47
2023-04-18T12:02:46.415Z,215.07
2023-04-18T12:03:46.430Z,214.50
2023-04-18T12:04:46.481Z,214.31
2023-04-18T12:05:46.782Z,213.26
2023-04-18T12:06:46.492Z,211.55
2023-04-18T12:07:46.510Z,211.27
2023-04-18T12:08:46.659Z,210.55
2023-04-18T12:09:46.621Z,210.38
2023-04-18T12:10:46.761Z,208.35
2023-04-18T12:11:46.738Z,208.14
2023-04-18T12:12:46.796Z,207.71
2023-04-18T12:13:46.856Z,207.85
2023-04-18T12:14:47.024Z,205.99
2023-04-18T12:15:47.009Z,207.25
2023-04-18T12:16:47.077Z,206.40
2023-04-18T12:17:47.156Z,206.39
2023-04-18T12:18:47.136Z,205.34
2023-04-18T12:19:49.662Z,207.43
2023-04-18T12:20:47.480Z,203.87
2023-04-18T12:21:47.529Z,204.22
2023-04-18T12:22:47.539Z,204.58
2023-04-18T12:23:47.603Z,203.37
2023-04-18T12:24:47.655Z,201.31
2023-04-18T12:25:47.736Z,202.97
2023-04-18T12:26:47.945Z,202.55
2023-04-18T12:27:47.828Z,201.94
2023-04-18T12:28:48.004Z,201.97
2023-04-18T12:29:47.991Z,201.59
2023-04-18T12:30:48.951Z,203.18
2023-04-18T12:31:48.422Z,202.53
2023-04-18T12:32:48.444Z,200.63
2023-04-18T12:33:48.204Z,201.61
2023-04-18T12:34:48.278Z,200.70